Summerfield, Kansas
Current Conditions -  °F | °C
As of 2:55 PM on Tuesday 21 Oct 2014 (Local Time) from KMYZ Reporting Station
Clear Clear  
Wind Chill: 75°   Ceiling: Unl
Heat Index: 75°   Visibility: 10mi
Dew Point: 45°   Wind: 6mph
Humidity: 34%   Direction: 170°S
Pressure: 30.04"   Gusts: NA
Location:  40°N, 96.35°W
Report Text: KMYZ 211955Z AUTO 17005KT 10SM CLR 24/07 A3004 RMK AO2
Loading
Personal Weather Stations






























Interactive Weather Map
Tropical Storm Tracking
New forecast layout! Learn more

10-Day Weather Forecast

Advertisements
Track Severe Weather on mobile